Time;durP1;ratioP1;P1;durP2;ratioP2;P2;SDS_P1;SDS_P2;PMS_P1;PMS_P2;Temp;Humidity;BMP_temperature;BMP_pressure;BME280_temperature;BME280_humidity;BME280_pressure;Samples;Min_cycle;Max_cycle;Signal;HPM_P1;HPM_P2
2022/04/27 00:00:43;;;;;;;5.60;4.60;;;16.20;99.90;;;;;;4958720;28;20467;-51
2022/04/27 00:03:08;;;;;;;12.57;9.35;;;16.00;99.90;;;;;;4990645;28;20054;-50
2022/04/27 00:05:34;;;;;;;13.77;8.00;;;15.60;99.90;;;;;;4979760;28;20038;-50
2022/04/27 00:08:00;;;;;;;10.77;7.30;;;15.50;99.90;;;;;;5046045;28;20110;-51
2022/04/27 00:10:26;;;;;;;9.10;7.07;;;15.60;99.90;;;;;;5040735;28;20685;-50
2022/04/27 00:12:52;;;;;;;6.90;4.88;;;15.60;99.90;;;;;;5044658;28;20037;-51
2022/04/27 00:15:20;;;;;;;7.75;5.82;;;15.60;99.90;;;;;;5049295;28;20528;-52
2022/04/27 00:17:46;;;;;;;7.05;5.40;;;15.50;99.90;;;;;;5049002;28;20037;-51
2022/04/27 00:20:12;;;;;;;7.10;4.95;;;15.40;99.90;;;;;;5048235;28;20043;-51
2022/04/27 00:22:38;;;;;;;9.20;5.57;;;15.40;99.90;;;;;;5000291;28;20107;-51
2022/04/27 00:25:05;;;;;;;6.50;5.60;;;15.30;99.90;;;;;;5033531;28;20533;-51
2022/04/27 00:27:32;;;;;;;6.07;5.20;;;15.40;99.90;;;;;;5047806;28;20025;-51
2022/04/27 00:29:58;;;;;;;8.15;5.25;;;15.40;99.90;;;;;;5049459;28;20053;-50
2022/04/27 00:32:24;;;;;;;7.75;5.72;;;15.50;99.90;;;;;;5051914;28;20045;-51
2022/04/27 00:34:50;;;;;;;8.40;5.97;;;15.50;99.90;;;;;;5052776;28;20021;-50
2022/04/27 00:37:18;;;;;;;6.97;5.65;;;15.50;99.90;;;;;;5051863;28;20032;-51
2022/04/27 00:39:45;;;;;;;6.28;5.53;;;15.60;99.90;;;;;;5052388;28;20087;-51
2022/04/27 00:42:14;;;;;;;6.68;5.90;;;15.60;99.90;;;;;;5051727;28;20067;-50
2022/04/27 00:44:43;;;;;;;6.20;5.35;;;15.70;99.90;;;;;;5052298;28;20573;-51
2022/04/27 00:47:14;;;;;;;5.78;5.18;;;15.70;99.90;;;;;;5055616;28;20047;-50
2022/04/27 00:49:46;;;;;;;7.38;5.68;;;15.70;99.90;;;;;;5049695;28;20610;-51
2022/04/27 00:52:12;;;;;;;;;;;15.70;99.90;;;;;;5056256;28;20025;-51
2022/04/27 00:54:46;;;;;;;8.05;5.07;;;15.70;99.90;;;;;;5016124;28;20438;-51
2022/04/27 00:57:12;;;;;;;6.82;5.18;;;15.80;99.90;;;;;;5033475;28;20036;-51
2022/04/27 00:59:39;;;;;;;7.65;5.25;;;15.80;99.90;;;;;;5033468;28;20124;-50
2022/04/27 01:02:05;;;;;;;6.70;4.90;;;15.90;99.90;;;;;;5032970;28;20087;-52
2022/04/27 01:04:35;;;;;;;6.25;4.65;;;15.90;99.90;;;;;;5033327;28;20577;-52
2022/04/27 01:07:02;;;;;;;6.28;5.40;;;15.90;99.90;;;;;;5033479;28;20037;-52
2022/04/27 01:09:32;;;;;;;6.47;5.88;;;15.90;99.90;;;;;;5032532;28;20136;-51
2022/04/27 01:11:58;;;;;;;6.00;5.22;;;15.90;99.90;;;;;;5016607;28;20044;-51
2022/04/27 01:14:25;;;;;;;6.40;5.72;;;15.90;99.90;;;;;;5033104;28;20113;-51
2022/04/27 01:16:54;;;;;;;9.13;5.80;;;15.80;99.90;;;;;;5028358;28;20072;-50
2022/04/27 01:19:23;;;;;;;7.68;6.00;;;15.80;99.90;;;;;;5016190;28;20111;-51
2022/04/27 01:21:51;;;;;;;6.25;5.47;;;15.80;99.90;;;;;;5032995;28;20047;-50
2022/04/27 01:24:24;;;;;;;8.02;5.95;;;15.60;99.90;;;;;;5033427;28;20033;-51
2022/04/27 01:26:50;;;;;;;;;;;15.20;99.90;;;;;;5055655;28;20053;-50
2022/04/27 01:29:19;;;;;;;8.77;6.03;;;15.00;99.90;;;;;;5054886;28;19917;-50
2022/04/27 01:31:46;;;;;;;8.02;6.20;;;14.70;99.90;;;;;;5051065;28;20079;-51
2022/04/27 01:34:12;;;;;;;9.23;6.40;;;14.70;99.90;;;;;;5062075;28;20487;-51
2022/04/27 01:36:39;;;;;;;8.75;6.10;;;14.50;99.90;;;;;;5054759;28;20550;-50
2022/04/27 01:39:05;;;;;;;6.28;5.68;;;14.00;99.90;;;;;;5055127;28;20033;-51
2022/04/27 01:41:31;;;;;;;8.60;7.63;;;13.90;99.90;;;;;;5054623;28;20036;-51
2022/04/27 01:43:57;;;;;;;7.78;6.97;;;13.80;99.90;;;;;;5054795;28;20025;-50
2022/04/27 01:46:24;;;;;;;10.38;6.75;;;13.80;99.90;;;;;;5054482;28;20111;-50
2022/04/27 01:48:52;;;;;;;8.65;6.13;;;13.70;99.90;;;;;;5055422;28;20092;-50
2022/04/27 01:51:18;;;;;;;8.35;6.65;;;13.40;99.90;;;;;;5054624;28;20107;-50
2022/04/27 01:56:29;;;;;;;11.02;7.15;;;13.10;99.90;;;;;;5051661;28;20495;-51
2022/04/27 01:58:55;;;;;;;7.63;6.80;;;13.10;99.90;;;;;;5055426;28;20025;-51
2022/04/27 02:01:21;;;;;;;10.45;7.85;;;13.20;99.90;;;;;;5054254;28;20501;-50
2022/04/27 02:03:48;;;;;;;9.93;6.68;;;13.40;99.90;;;;;;5054026;28;20037;-50
2022/04/27 02:06:19;;;;;;;9.45;7.53;;;13.80;99.90;;;;;;5049999;28;20048;-50
2022/04/27 02:08:48;;;;;;;8.80;7.67;;;14.00;99.90;;;;;;5054292;28;20044;-50
2022/04/27 02:11:15;;;;;;;11.07;7.85;;;14.10;99.90;;;;;;5035649;28;20292;-50
2022/04/27 02:13:40;;;;;;;9.23;7.35;;;14.20;99.90;;;;;;5051682;28;20362;-51
2022/04/27 02:16:06;;;;;;;13.60;8.05;;;14.30;99.90;;;;;;5053905;28;20033;-50
2022/04/27 02:18:32;;;;;;;7.80;6.20;;;14.50;99.90;;;;;;5054441;28;20461;-51
2022/04/27 02:20:57;;;;;;;8.38;6.63;;;14.40;99.90;;;;;;5054612;28;20048;-51
2022/04/27 02:23:23;;;;;;;8.02;7.00;;;14.20;99.90;;;;;;5042632;28;20033;-50
2022/04/27 02:25:50;;;;;;;9.07;8.07;;;13.80;99.90;;;;;;5048477;28;20037;-51
2022/04/27 02:28:16;;;;;;;10.38;6.35;;;13.60;99.90;;;;;;5053912;28;20115;-51
2022/04/27 02:30:42;;;;;;;10.25;6.68;;;13.40;99.90;;;;;;5068372;28;20568;-51
2022/04/27 02:33:08;;;;;;;8.50;7.28;;;13.30;99.90;;;;;;5054591;28;20060;-50
2022/04/27 02:35:34;;;;;;;8.95;6.60;;;13.40;99.90;;;;;;5053747;28;20021;-51
2022/04/27 02:38:00;;;;;;;9.20;7.07;;;13.30;99.90;;;;;;5048239;28;20113;-50
2022/04/27 02:40:25;;;;;;;8.20;6.85;;;13.50;99.90;;;;;;5051193;28;20032;-50
2022/04/27 02:42:52;;;;;;;9.63;6.55;;;13.70;99.90;;;;;;5034395;28;20437;-51
2022/04/27 02:45:18;;;;;;;8.77;6.75;;;13.70;99.90;;;;;;5052349;28;20041;-50
2022/04/27 02:47:44;;;;;;;11.52;6.97;;;13.30;99.90;;;;;;5053549;28;20419;-50
2022/04/27 02:52:54;;;;;;;9.85;6.43;;;13.20;99.90;;;;;;5053554;28;20112;-50
2022/04/27 02:55:22;;;;;;;8.13;7.05;;;13.20;99.90;;;;;;5064732;28;20136;-51
2022/04/27 02:57:48;;;;;;;10.75;7.68;;;13.20;99.90;;;;;;5051089;28;20128;-51
2022/04/27 03:00:15;;;;;;;10.60;7.13;;;13.20;99.90;;;;;;5048806;28;20048;-51
2022/04/27 03:02:40;;;;;;;11.98;8.00;;;13.30;99.90;;;;;;5041132;28;20139;-50
2022/04/27 03:05:07;;;;;;;9.80;7.88;;;13.70;99.90;;;;;;5052813;28;20521;-51
2022/04/27 03:07:32;;;;;;;17.45;8.73;;;13.90;99.90;;;;;;5017876;28;20033;-51
2022/04/27 03:09:58;;;;;;;15.25;8.65;;;14.10;99.90;;;;;;5052377;28;20060;-50
2022/04/27 03:12:24;;;;;;;14.13;8.27;;;14.30;99.90;;;;;;5052716;28;20059;-50
2022/04/27 03:14:49;;;;;;;21.40;9.02;;;14.40;99.90;;;;;;5051629;28;20035;-51
2022/04/27 03:17:15;;;;;;;16.88;6.75;;;14.50;99.90;;;;;;5053023;28;20029;-50
2022/04/27 03:19:41;;;;;;;17.85;7.30;;;14.60;99.90;;;;;;5053231;28;20040;-50
2022/04/27 03:22:08;;;;;;;9.68;6.68;;;14.70;99.90;;;;;;5053397;28;20476;-51
2022/04/27 03:24:34;;;;;;;15.40;7.50;;;14.70;99.90;;;;;;5034504;28;20037;-52
2022/04/27 03:27:00;;;;;;;7.85;7.00;;;14.80;99.90;;;;;;5053238;28;20380;-51
2022/04/27 03:29:26;;;;;;;14.32;6.90;;;14.90;99.90;;;;;;5033936;28;20056;-50
2022/04/27 03:31:51;;;;;;;10.65;6.80;;;15.00;99.90;;;;;;5052702;28;20037;-50
2022/04/27 03:34:17;;;;;;;10.40;6.93;;;15.00;99.90;;;;;;5044607;28;20040;-51
2022/04/27 03:36:43;;;;;;;8.98;6.25;;;15.00;99.90;;;;;;5044372;28;20034;-50
2022/04/27 03:39:09;;;;;;;7.95;6.97;;;15.00;99.90;;;;;;5049708;28;20041;-51
2022/04/27 03:41:34;;;;;;;10.70;6.95;;;14.90;99.90;;;;;;5030135;28;20500;-52
2022/04/27 03:44:00;;;;;;;18.60;7.75;;;14.80;99.90;;;;;;5028879;28;20125;-50
2022/04/27 03:46:26;;;;;;;10.27;7.03;;;14.80;99.90;;;;;;5052139;28;20029;-50
2022/04/27 03:48:52;;;;;;;11.98;7.57;;;14.80;99.90;;;;;;5038144;28;20041;-51
2022/04/27 03:51:18;;;;;;;11.05;7.80;;;14.70;99.90;;;;;;5040956;28;20068;-52
2022/04/27 03:53:44;;;;;;;7.82;7.10;;;14.60;99.90;;;;;;5048147;28;20032;-50
2022/04/27 03:56:10;;;;;;;9.27;7.18;;;14.70;99.90;;;;;;5042041;28;20067;-51
2022/04/27 03:58:36;;;;;;;9.40;6.57;;;14.80;99.90;;;;;;5053241;28;20024;-52
2022/04/27 04:01:02;;;;;;;9.43;7.25;;;14.70;99.90;;;;;;5047667;28;20029;-51
2022/04/27 04:03:27;;;;;;;7.60;6.90;;;14.70;99.90;;;;;;5046155;28;20084;-51
2022/04/27 04:05:53;;;;;;;9.18;7.22;;;14.60;99.90;;;;;;5045883;28;20033;-50
2022/04/27 04:08:19;;;;;;;14.40;7.45;;;14.40;99.90;;;;;;5036676;28;20033;-50
2022/04/27 04:10:46;;;;;;;15.70;8.13;;;14.60;99.90;;;;;;5051498;28;20069;-50
2022/04/27 04:13:12;;;;;;;16.08;8.00;;;14.70;99.90;;;;;;5049622;28;20033;-50
2022/04/27 04:15:38;;;;;;;10.10;7.47;;;14.60;99.90;;;;;;5052167;28;20055;-52
2022/04/27 04:18:05;;;;;;;15.30;7.68;;;14.50;99.90;;;;;;5049435;28;21090;-52
2022/04/27 04:20:31;;;;;;;9.75;7.35;;;14.50;99.90;;;;;;5049196;28;20037;-51
2022/04/27 04:22:57;;;;;;;10.45;7.28;;;14.20;99.90;;;;;;5016295;28;20056;-51
2022/04/27 04:30:51;;;;;;;9.05;7.43;;;14.50;99.90;;;;;;5026201;28;20055;-51
2022/04/27 04:33:17;;;;;;;11.60;7.35;;;14.60;99.90;;;;;;5055789;28;20024;-51
2022/04/27 04:35:42;;;;;;;10.25;6.80;;;14.70;99.90;;;;;;5056437;28;20472;-51
2022/04/27 04:38:09;;;;;;;13.40;7.22;;;14.70;99.90;;;;;;5055928;28;20481;-50
2022/04/27 04:40:35;;;;;;;13.95;7.38;;;14.80;99.90;;;;;;5055352;28;20040;-51
2022/04/27 04:43:00;;;;;;;9.20;7.28;;;14.80;99.90;;;;;;5050951;28;20029;-52
2022/04/27 04:45:26;;;;;;;10.45;6.75;;;14.90;99.90;;;;;;5054771;28;20453;-51
2022/04/27 04:47:53;;;;;;;15.35;6.72;;;15.00;99.90;;;;;;5053915;28;20056;-50
2022/04/27 04:50:19;;;;;;;14.60;6.82;;;15.00;99.90;;;;;;5034535;28;20047;-51
2022/04/27 04:52:47;;;;;;;14.20;6.60;;;15.20;99.90;;;;;;5066372;28;20032;-52
2022/04/27 04:55:13;;;;;;;12.20;7.95;;;15.30;99.90;;;;;;5046580;28;20033;-51
2022/04/27 04:57:39;;;;;;;20.27;7.90;;;15.40;99.90;;;;;;5017055;28;20036;-52
2022/04/27 05:00:08;;;;;;;7.53;6.78;;;15.40;99.90;;;;;;5033959;28;20461;-51
2022/04/27 05:02:35;;;;;;;11.02;7.50;;;15.50;99.90;;;;;;5055022;28;20049;-52
2022/04/27 05:05:05;;;;;;;10.50;7.57;;;15.60;99.90;;;;;;5055331;28;20182;-51
2022/04/27 05:07:32;;;;;;;10.93;9.43;;;15.70;99.90;;;;;;5053859;28;20033;-51
2022/04/27 05:09:58;;;;;;;13.63;9.65;;;15.90;99.90;;;;;;5054238;28;20033;-52
2022/04/27 05:12:24;;;;;;;12.30;8.95;;;16.00;99.90;;;;;;5052113;28;20044;-50
2022/04/27 05:14:51;;;;;;;16.33;10.43;;;16.10;99.90;;;;;;5055418;28;20028;-52
2022/04/27 05:17:17;;;;;;;10.85;8.52;;;;;;;;;;5055104;28;20400;-49
2022/04/27 05:19:43;;;;;;;9.52;8.07;;;16.10;99.90;;;;;;5054640;28;20227;-49
2022/04/27 05:22:09;;;;;;;8.00;7.20;;;;;;;;;;5055039;28;20029;-50
2022/04/27 05:24:35;;;;;;;11.10;7.05;;;;;;;;;;5055167;28;20032;-51
2022/04/27 05:27:01;;;;;;;8.07;7.13;;;16.80;99.90;;;;;;5055302;28;20024;-51
2022/04/27 05:32:12;;;;;;;23.73;8.60;;;16.80;99.90;;;;;;5049859;28;20052;-54
2022/04/27 05:34:39;;;;;;;11.25;6.25;;;16.90;99.90;;;;;;5055007;28;20033;-49
2022/04/27 05:37:05;;;;;;;7.85;6.78;;;16.80;99.90;;;;;;5069405;28;20464;-52
2022/04/27 05:39:31;;;;;;;6.95;6.13;;;17.00;99.90;;;;;;5054620;28;20060;-47
2022/04/27 05:41:57;;;;;;;8.25;6.47;;;17.10;99.90;;;;;;5047715;28;20036;-49
2022/04/27 05:44:24;;;;;;;13.52;7.53;;;17.10;99.90;;;;;;5053767;28;20021;-50
2022/04/27 05:46:51;;;;;;;9.40;7.90;;;;;;;;;;5054485;28;20032;-50
2022/04/27 05:49:17;;;;;;;9.65;6.60;;;17.70;99.90;;;;;;5054635;28;20029;-48
2022/04/27 05:51:43;;;;;;;8.88;7.55;;;;;;;;;;5043679;28;20064;-50
2022/04/27 05:54:09;;;;;;;6.97;5.97;;;17.70;99.90;;;;;;5043699;28;20033;-51
2022/04/27 05:56:36;;;;;;;7.85;6.15;;;;;;;;;;5049112;28;20052;-52
2022/04/27 05:59:02;;;;;;;9.27;6.68;;;17.90;99.90;;;;;;5054637;28;20353;-48
2022/04/27 06:01:28;;;;;;;6.97;6.10;;;;;;;;;;5052640;28;20065;-50
2022/04/27 06:03:54;;;;;;;6.72;6.05;;;18.20;99.90;;;;;;5054144;28;20528;-48
2022/04/27 06:06:21;;;;;;;7.28;5.90;;;18.50;99.90;;;;;;5052367;28;20400;-50
2022/04/27 06:08:47;;;;;;;7.50;6.38;;;18.70;99.90;;;;;;5054073;28;20024;-49
2022/04/27 06:11:12;;;;;;;7.88;6.50;;;18.90;99.90;;;;;;5054077;28;20037;-47
2022/04/27 06:13:38;;;;;;;6.22;5.60;;;19.00;99.90;;;;;;5052753;28;20424;-52
2022/04/27 06:16:04;;;;;;;7.15;6.13;;;18.80;99.90;;;;;;5054144;28;20079;-48
2022/04/27 06:18:30;;;;;;;10.40;6.55;;;18.80;99.90;;;;;;5053451;28;20025;-50
2022/04/27 06:20:56;;;;;;;12.45;6.38;;;18.90;99.90;;;;;;5053761;28;20056;-48
2022/04/27 06:23:23;;;;;;;9.25;6.90;;;19.10;99.90;;;;;;5052701;28;20024;-51
2022/04/27 06:25:49;;;;;;;6.85;6.15;;;18.80;99.90;;;;;;5046323;28;20043;-49
2022/04/27 06:28:19;;;;;;;10.18;7.20;;;18.60;99.90;;;;;;5066327;28;20041;-51
2022/04/27 06:30:45;;;;;;;6.85;6.15;;;18.60;99.90;;;;;;5054589;28;20040;-53
2022/04/27 06:33:11;;;;;;;12.82;6.63;;;18.60;99.90;;;;;;5052299;28;20025;-50
2022/04/27 06:35:37;;;;;;;7.55;6.00;;;18.80;99.90;;;;;;5053902;28;20127;-52
2022/04/27 06:38:03;;;;;;;9.48;6.53;;;19.00;99.90;;;;;;5053936;28;20055;-48
2022/04/27 06:40:29;;;;;;;8.88;5.85;;;18.90;99.90;;;;;;5048227;28;20037;-50
2022/04/27 06:42:56;;;;;;;9.13;6.35;;;19.00;99.90;;;;;;5048070;28;20060;-49
2022/04/27 06:45:28;;;;;;;9.75;6.68;;;19.10;99.90;;;;;;5053472;28;20087;-47
2022/04/27 06:47:56;;;;;;;15.07;6.70;;;19.20;99.90;;;;;;5036443;28;20048;-48
2022/04/27 06:50:22;;;;;;;7.07;5.82;;;19.40;99.90;;;;;;5052884;28;20389;-48
2022/04/27 06:52:47;;;;;;;8.07;5.53;;;19.50;99.90;;;;;;5053315;28;20029;-50
2022/04/27 06:55:14;;;;;;;9.38;5.85;;;19.50;99.90;;;;;;5045164;28;20507;-50
2022/04/27 06:57:40;;;;;;;10.90;5.55;;;19.50;99.90;;;;;;5054197;28;20044;-50
2022/04/27 07:00:12;;;;;;;7.47;6.15;;;19.70;99.90;;;;;;5048257;28;20033;-52
2022/04/27 07:02:39;;;;;;;9.40;6.85;;;19.60;99.90;;;;;;5008071;28;20308;-50
2022/04/27 07:05:09;;;;;;;12.35;6.10;;;19.50;99.90;;;;;;5030017;28;20400;-51
2022/04/27 07:07:36;;;;;;;17.45;6.88;;;;;;;;;;4960072;28;20042;-53
2022/04/27 07:10:03;;;;;;;10.13;7.15;;;19.90;99.90;;;;;;5011778;28;20050;-49
2022/04/27 07:12:28;;;;;;;13.18;8.05;;;19.80;99.90;;;;;;4983360;28;20383;-49
2022/04/27 07:14:56;;;;;;;9.63;8.63;;;19.70;99.90;;;;;;4931747;28;20038;-47
2022/04/27 07:17:22;;;;;;;10.40;7.78;;;19.50;99.90;;;;;;4959340;28;20065;-49
2022/04/27 07:19:47;;;;;;;12.23;8.27;;;19.60;99.90;;;;;;4991460;28;20487;-50
2022/04/27 07:22:13;;;;;;;12.75;8.85;;;19.50;99.90;;;;;;4975186;28;20113;-48
2022/04/27 07:24:39;;;;;;;10.43;8.25;;;19.40;99.90;;;;;;4992208;28;20031;-48
2022/04/27 07:27:05;;;;;;;15.13;8.57;;;19.40;99.90;;;;;;4990995;28;20042;-49
2022/04/27 07:29:31;;;;;;;9.45;7.93;;;19.80;99.90;;;;;;4991290;28;20046;-48
2022/04/27 07:32:00;;;;;;;10.80;7.55;;;19.80;99.90;;;;;;4991331;28;20034;-49
2022/04/27 07:34:27;;;;;;;12.50;7.68;;;19.80;99.90;;;;;;4980521;28;20046;-48
2022/04/27 07:36:53;;;;;;;12.38;7.47;;;19.80;99.90;;;;;;4991420;28;20034;-47
2022/04/27 07:39:18;;;;;;;10.50;7.60;;;19.70;99.90;;;;;;4991173;28;20120;-47
2022/04/27 07:41:45;;;;;;;11.10;7.97;;;19.70;99.90;;;;;;4973421;28;20523;-48
2022/04/27 07:44:14;;;;;;;12.55;7.45;;;19.80;99.90;;;;;;5026477;28;20102;-47
2022/04/27 07:46:40;;;;;;;8.90;6.20;;;;;;;;;;5017241;28;20124;-48
2022/04/27 07:49:06;;;;;;;7.90;6.15;;;20.20;99.90;;;;;;5033394;28;20032;-48
2022/04/27 07:51:32;;;;;;;10.43;6.35;;;20.20;99.90;;;;;;5051264;28;20472;-48
2022/04/27 07:53:58;;;;;;;7.00;5.28;;;;;;;;;;5040501;28;20115;-48
2022/04/27 07:56:23;;;;;;;6.72;5.38;;;20.40;99.90;;;;;;5042682;28;20423;-48
2022/04/27 07:58:49;;;;;;;9.23;4.72;;;20.70;99.90;;;;;;5051598;28;20033;-48
2022/04/27 08:01:15;;;;;;;7.43;5.10;;;21.10;99.90;;;;;;5051267;28;20389;-49
2022/04/27 08:03:41;;;;;;;7.00;5.45;;;20.90;99.90;;;;;;5051363;28;20068;-48
2022/04/27 08:06:06;;;;;;;9.32;5.03;;;21.00;99.90;;;;;;5051262;28;20021;-48
2022/04/27 08:08:33;;;;;;;6.28;4.60;;;20.90;99.90;;;;;;5066440;28;20037;-47
2022/04/27 08:10:59;;;;;;;5.55;4.60;;;21.40;99.90;;;;;;5050688;28;20045;-49
2022/04/27 08:13:25;;;;;;;7.45;4.72;;;;;;;;;;5050408;28;20033;-49
2022/04/27 08:15:51;;;;;;;8.43;5.05;;;;;;;;;;5051275;28;20334;-47
2022/04/27 08:18:17;;;;;;;12.18;5.07;;;21.40;99.90;;;;;;5051128;28;20031;-48
2022/04/27 08:23:32;;;;;;;8.25;4.95;;;21.30;99.90;;;;;;5050878;28;20051;-49
2022/04/27 08:26:00;;;;;;;8.70;5.65;;;21.30;99.90;;;;;;5043765;28;20044;-48
2022/04/27 08:28:27;;;;;;;6.35;5.18;;;21.30;99.90;;;;;;5050690;28;20029;-50
2022/04/27 08:30:54;;;;;;;9.43;7.22;;;21.00;99.90;;;;;;5051328;28;20045;-49
2022/04/27 08:33:20;;;;;;;8.73;6.05;;;21.10;99.90;;;;;;5050934;28;20041;-47
2022/04/27 08:35:46;;;;;;;6.57;5.07;;;20.80;99.90;;;;;;5051143;28;20036;-47
2022/04/27 08:38:13;;;;;;;12.85;5.82;;;21.00;99.90;;;;;;5050695;28;20091;-48
2022/04/27 08:40:44;;;;;;;10.98;5.68;;;21.40;99.90;;;;;;5051107;28;20045;-48
2022/04/27 08:43:10;;;;;;;7.45;4.85;;;21.30;99.90;;;;;;5051261;28;20550;-49
2022/04/27 08:45:37;;;;;;;16.77;5.43;;;21.80;99.90;;;;;;5050787;28;20098;-48
2022/04/27 08:48:03;;;;;;;8.75;5.13;;;22.00;99.90;;;;;;5050869;28;20473;-48
2022/04/27 08:50:30;;;;;;;11.60;4.85;;;21.90;99.90;;;;;;5037919;28;20037;-49
2022/04/27 08:52:56;;;;;;;13.45;5.30;;;22.30;99.90;;;;;;5050624;28;20025;-49
2022/04/27 08:55:22;;;;;;;8.95;5.60;;;;;;;;;;5045075;28;20075;-48
2022/04/27 08:57:48;;;;;;;9.15;6.30;;;;;;;;;;5026486;28;20124;-47
2022/04/27 09:00:16;;;;;;;9.98;5.10;;;22.60;99.90;;;;;;5050676;28;20488;-48
2022/04/27 09:02:43;;;;;;;9.82;5.15;;;;;;;;;;5050340;28;20041;-49
2022/04/27 09:05:20;;;;;;;12.23;5.50;;;;;;;;;;5050955;28;20084;-48
2022/04/27 09:07:51;;;;;;;11.88;5.55;;;23.30;99.90;;;;;;5053759;28;20053;-48
2022/04/27 09:10:19;;;;;;;8.02;4.88;;;23.40;99.90;;;;;;5033542;28;20049;-49
2022/04/27 09:12:46;;;;;;;7.20;4.95;;;;;;;;;;5052836;28;20029;-50
2022/04/27 09:15:14;;;;;;;6.57;4.60;;;23.70;99.90;;;;;;5053438;28;20068;-49
2022/04/27 09:23:21;;;;;;;12.13;3.95;;;22.50;99.90;;;;;;5044968;28;20197;-48
2022/04/27 09:25:50;;;;;;;7.57;3.85;;;22.50;99.90;;;;;;5044562;28;20036;-50
2022/04/27 09:28:16;;;;;;;5.85;4.07;;;22.70;99.90;;;;;;5042233;28;20480;-48
2022/04/27 09:30:44;;;;;;;13.95;3.97;;;23.00;99.90;;;;;;5065945;28;20044;-48
2022/04/27 09:33:10;;;;;;;5.88;3.40;;;22.90;99.90;;;;;;5050254;28;20033;-48
2022/04/27 09:35:37;;;;;;;6.68;3.47;;;23.00;99.90;;;;;;5048777;28;20028;-47
2022/04/27 09:38:18;;;;;;;6.43;3.33;;;23.40;99.90;;;;;;5044552;28;20059;-48
2022/04/27 09:40:44;;;;;;;4.13;2.88;;;;;;;;;;5047827;28;20059;-50
2022/04/27 09:43:14;;;;;;;6.13;3.10;;;24.10;99.90;;;;;;5050481;28;20591;-50
2022/04/27 09:45:44;;;;;;;7.93;3.50;;;24.00;99.90;;;;;;5042299;28;20045;-49
2022/04/27 09:48:17;;;;;;;6.30;2.63;;;24.10;99.90;;;;;;5032316;28;20455;-49
2022/04/27 09:50:49;;;;;;;6.28;2.85;;;24.60;99.90;;;;;;5020396;28;20408;-47
2022/04/27 09:53:15;;;;;;;;;;;;;;;;;;5041561;28;20033;-49
2022/04/27 09:55:54;;;;;;;2.33;1.70;;;;;;;;;;5042075;28;20284;-47
2022/04/27 09:58:20;;;;;;;3.85;1.83;;;25.50;99.90;;;;;;5046775;28;20104;-50
2022/04/27 10:00:48;;;;;;;5.10;1.63;;;25.00;99.90;;;;;;5032902;28;20457;-48
2022/04/27 10:03:18;;;;;;;7.95;2.63;;;25.50;99.90;;;;;;5049512;28;20053;-51
2022/04/27 10:05:45;;;;;;;5.18;3.28;;;;;;;;;;5051596;28;20485;-56
2022/04/27 10:08:11;;;;;;;4.75;2.80;;;25.50;99.90;;;;;;5050429;28;20063;-55
2022/04/27 10:10:39;;;;;;;3.75;1.67;;;25.10;99.90;;;;;;5045889;28;20083;-50
2022/04/27 10:13:10;;;;;;;2.85;1.40;;;25.30;99.90;;;;;;5049169;28;20056;-52
2022/04/27 10:15:43;;;;;;;3.65;2.50;;;25.40;99.90;;;;;;5049184;28;20484;-51
2022/04/27 10:18:19;;;;;;;2.47;1.75;;;;;;;;;;5046232;28;20400;-48
2022/04/27 10:20:48;;;;;;;2.80;2.15;;;25.90;99.90;;;;;;5063272;28;20070;-47
2022/04/27 10:23:19;;;;;;;4.72;2.38;;;25.70;99.90;;;;;;5049348;28;20114;-50
2022/04/27 10:26:04;;;;;;;3.15;2.30;;;;;;;;;;5046842;28;20033;-51
2022/04/27 10:28:30;;;;;;;4.18;2.42;;;26.20;99.90;;;;;;5049270;28;20036;-49
2022/04/27 10:30:56;;;;;;;3.65;2.20;;;25.90;99.90;;;;;;5047073;28;20045;-51
2022/04/27 10:33:42;;;;;;;2.78;2.30;;;25.70;99.90;;;;;;5042845;28;20029;-50
2022/04/27 10:36:37;;;;;;;3.17;2.22;;;26.30;99.90;;;;;;5047689;28;20021;-48
2022/04/27 10:39:12;;;;;;;3.95;2.42;;;25.70;99.90;;;;;;5026324;28;20040;-48
2022/04/27 10:41:47;;;;;;;7.90;5.20;;;25.80;99.90;;;;;;5047925;28;20027;-47
2022/04/27 10:44:14;;;;;;;7.75;5.35;;;25.80;99.90;;;;;;5048425;28;20025;-47
2022/04/27 10:46:41;;;;;;;6.00;2.60;;;;;;;;;;5025915;28;20451;-49
2022/04/27 10:49:28;;;;;;;6.28;2.63;;;;;;;;;;5049065;28;20033;-50
2022/04/27 10:52:07;;;;;;;3.70;2.22;;;25.50;99.90;;;;;;5049000;28;20033;-50
2022/04/27 10:54:34;;;;;;;7.50;2.22;;;25.50;99.90;;;;;;5048843;28;20075;-49
2022/04/27 10:57:15;;;;;;;3.15;2.03;;;25.50;99.90;;;;;;5050458;28;20060;-49
2022/04/27 10:59:47;;;;;;;2.00;1.73;;;25.60;99.90;;;;;;5044346;28;20030;-49
2022/04/27 11:02:36;;;;;;;2.53;1.80;;;25.90;99.80;;;;;;5043439;28;20099;-50
2022/04/27 11:05:07;;;;;;;2.78;1.98;;;26.40;99.20;;;;;;5050893;28;20114;-50
2022/04/27 11:07:40;;;;;;;2.72;2.08;;;26.60;99.90;;;;;;5043827;28;20064;-50
2022/04/27 11:10:20;;;;;;;3.28;1.80;;;26.20;99.90;;;;;;5048422;28;20044;-50
2022/04/27 11:12:49;;;;;;;3.80;2.10;;;26.40;98.20;;;;;;5039509;28;20507;-49
2022/04/27 11:15:17;;;;;;;8.02;2.50;;;26.70;98.30;;;;;;5064331;28;20094;-51
2022/04/27 11:17:43;;;;;;;2.47;1.52;;;26.80;97.90;;;;;;5043481;28;20107;-49
2022/04/27 11:20:23;;;;;;;5.60;2.17;;;26.60;96.80;;;;;;5042128;28;20040;-50
2022/04/27 11:22:49;;;;;;;4.78;2.10;;;25.90;97.70;;;;;;5037470;28;20032;-50
2022/04/27 11:25:31;;;;;;;2.55;2.20;;;25.80;98.10;;;;;;5032036;28;20053;-50
2022/04/27 11:27:59;;;;;;;4.78;2.70;;;25.70;99.00;;;;;;5059376;28;20162;-50
2022/04/27 11:30:27;;;;;;;3.53;2.45;;;26.40;99.70;;;;;;5029243;28;20058;-51
2022/04/27 11:32:52;;;;;;;4.95;2.13;;;26.70;99.90;;;;;;5021553;28;20419;-49
2022/04/27 11:35:22;;;;;;;4.10;2.63;;;26.90;99.00;;;;;;5045679;28;20020;-50
2022/04/27 11:37:49;;;;;;;6.03;2.50;;;26.90;98.00;;;;;;5042003;28;20038;-49
2022/04/27 11:40:17;;;;;;;4.03;2.58;;;27.00;98.50;;;;;;5040250;28;20069;-50
2022/04/27 11:42:48;;;;;;;4.78;2.58;;;26.50;98.40;;;;;;5045995;28;20793;-50
2022/04/27 11:45:19;;;;;;;3.50;2.20;;;26.40;96.80;;;;;;5048263;28;20052;-50
2022/04/27 11:47:55;;;;;;;3.28;2.10;;;26.40;96.10;;;;;;5045590;28;20280;-50
2022/04/27 11:50:21;;;;;;;2.95;2.03;;;26.90;96.40;;;;;;5045175;28;20078;-50
2022/04/27 11:52:57;;;;;;;6.25;2.17;;;27.20;99.90;;;;;;5063651;28;20049;-49
2022/04/27 11:55:23;;;;;;;8.50;2.30;;;27.20;96.20;;;;;;5039589;28;20068;-50
2022/04/27 11:57:49;;;;;;;3.65;2.15;;;27.00;99.30;;;;;;5039526;28;20068;-50
2022/04/27 12:00:28;;;;;;;4.85;2.20;;;26.90;96.00;;;;;;5043301;28;20027;-50
2022/04/27 12:03:05;;;;;;;5.07;2.30;;;27.00;96.90;;;;;;5047749;28;20064;-50
2022/04/27 12:05:36;;;;;;;4.75;2.00;;;26.90;96.50;;;;;;5039813;28;20033;-50
2022/04/27 12:08:07;;;;;;;2.10;1.88;;;26.80;95.40;;;;;;5042678;28;20076;-49
2022/04/27 12:10:39;;;;;;;8.57;2.20;;;;;;;;;;5045895;28;20037;-50
2022/04/27 12:13:06;;;;;;;2.40;1.80;;;27.70;99.90;;;;;;5047695;28;20052;-50
2022/04/27 12:15:32;;;;;;;3.42;1.92;;;27.00;94.80;;;;;;5042502;28;20029;-49
2022/04/27 12:17:58;;;;;;;3.28;2.05;;;27.20;95.10;;;;;;5042001;28;20037;-51
2022/04/27 12:20:38;;;;;;;4.53;2.13;;;27.30;95.10;;;;;;5048168;28;20055;-50
2022/04/27 12:23:20;;;;;;;5.20;2.28;;;27.50;96.30;;;;;;5048694;28;20064;-49
2022/04/27 12:25:53;;;;;;;3.38;2.05;;;27.40;97.80;;;;;;5049562;28;20676;-52
2022/04/27 12:28:20;;;;;;;3.85;2.35;;;28.30;99.90;;;;;;5050223;28;20389;-51
2022/04/27 12:30:52;;;;;;;3.85;2.58;;;27.60;99.90;;;;;;5050871;28;20048;-50
2022/04/27 12:33:29;;;;;;;3.28;1.98;;;27.20;93.80;;;;;;5051425;28;20037;-51
2022/04/27 12:39:04;;;;;;;4.20;2.20;;;26.50;99.90;;;;;;5050591;28;20476;-49
2022/04/27 12:41:30;;;;;;;5.47;2.83;;;;;;;;;;5044062;28;20068;-49
2022/04/27 12:44:05;;;;;;;13.05;3.85;;;26.90;99.90;;;;;;5069288;28;20477;-49
2022/04/27 12:46:31;;;;;;;6.57;2.78;;;;;;;;;;5031690;28;20049;-49
2022/04/27 12:49:01;;;;;;;3.50;2.65;;;;;;;;;;5054918;28;20033;-49
2022/04/27 12:51:33;;;;;;;2.92;2.08;;;27.20;99.90;;;;;;5055182;28;20392;-49
2022/04/27 12:53:59;;;;;;;3.63;2.65;;;27.70;99.90;;;;;;5054818;28;20097;-49
2022/04/27 12:56:32;;;;;;;4.28;2.53;;;;;;;;;;5051297;28;20463;-49
2022/04/27 12:59:06;;;;;;;7.63;3.03;;;;;;;;;;5054409;28;20460;-49
2022/04/27 13:01:32;;;;;;;3.38;2.40;;;;;;;;;;5054230;28;20531;-49
2022/04/27 13:03:59;;;;;;;2.22;2.00;;;;;;;;;;5055232;28;20029;-49
2022/04/27 13:06:25;;;;;;;6.45;2.72;;;26.90;99.90;;;;;;5054391;28;20108;-48
2022/04/27 13:08:51;;;;;;;3.88;2.00;;;26.50;99.90;;;;;;5035459;28;20131;-49
2022/04/27 13:14:13;;;;;;;2.13;1.70;;;;;;;;;;5014588;28;20037;-49
2022/04/27 13:16:39;;;;;;;5.20;2.70;;;;;;;;;;5012764;28;20044;-49
2022/04/27 13:19:05;;;;;;;5.20;2.03;;;;;;;;;;5012286;28;20042;-49
2022/04/27 13:21:31;;;;;;;4.93;2.00;;;27.50;99.90;;;;;;5017955;28;20424;-48
2022/04/27 13:23:57;;;;;;;3.38;2.25;;;27.00;99.90;;;;;;5013092;28;20034;-48
2022/04/27 13:26:23;;;;;;;4.72;2.28;;;26.80;99.90;;;;;;4969689;28;20096;-49